Forum - METEO

POST X METEO

Amministratore
F.ranco52 07/10/2021 ore 08:45 Quota

(nessuno) Nowcasting Giovedì 7 Ottobre 2021

Buongiorno e Buona Giornata a tutti





Notizie Meteo dell'Italia da il Meteo .It


http://ilMeteo.It


la Situazione Italiana vista dal Sat









il Radar Europeo










Brindisi

METAR LIBR 070520Z 16009KT 9000 RA VCSH FEW010 SCT030 BKN045 19/18 Q1007=

METAR di Brindisi del 7 alle 5,20z

Vento da 160░ S SE 9 nodi (16,668 km) VisibilitÓ 8000 m , Pioggia
Nelle Vicinanze Rovesci di Pioggia
Copertura 1-2 ottavi da 1000 piedi (304,8 m)
Copertura 3-4 ottavi da 3000 piedi (914,4 m)
Copertura 5-7 ottavi da 4500 piedi (1371,6 m)
Temp 19░šC Dew 18░C Ur 93% hPa 1007

Brindisi

TAF LIBR 070500Z 0706/0806 18012KT 9999 SCT030 TEMPO 0708/0710 TSRA TEMPO 0800/0806 4000 TSRA=

le TAF di Brindisi delle 5z Previsioni dalle 6z alle 6z del 8

Vento da 180░ S 12 nodi (22,224 km) VisibilitÓ 10000 m
Copertura 3-4 ottavi da 3000 piedi (9124,4 m)
il Tempoi VarierÓ dalle 8z alle 10z
Temporali di Pioggia
il Tempo VarierÓ l'8 dalle 00z alle 06z
VisibilitÓ 4000 m , Temporali di Pioggia


Gioia del Colle

METAR LIBV 070455Z VRB01KT 8000 -RA SCT050 15/15 Q1007 RMK OVC SCT070 VIS MIN 8000 WIND THR32 27002KT WIND THR14 24002KT BLU=

METAR di Gioia del Colle del 7 alle 4,55z

Vento Variabile 1 nodo (1,852 km) VisibilitÓ 8000 m , Pioggia Debole
Copertura 3-4 ottavi da 5000 piedi (1524 m)
Temp 15░C Dew 15░C Ur 100% hPa 1007
Aumento della NuvolositÓ a 9 ottavi
Copertura 3-4 ottavi da 7000 piedi (2133,6 m)
VisibilitÓ Minima 8000 m

Gioia del Colle

TAF LIBV 070500Z 0706/0715 18010KT 9999 SCT030 TEMPO 0706/0712 4000 SHRA BKN025 FEW040CB=

le TAF di Gioia del Colle delle 5z Previsioni dalle 6z alle 15z

Vento da 180░ S 10 nodi (18,52 km) VisibilitÓ 10000 m
Copertura 3-4 ottavi da 3000 piedi (914,4 m)
il Tempo VarierÓ dalle 6z alle 12z
VisibilitÓ 4000 m , Rovesci di Pioggia
Copertura 5-7 ottavi da 2500 piedi (762 m)
Copertura 1-2 ottavi da 4000 piedi (1219,2 m) Cumulonembi
2742779
Buongiorno e Buona Giornata a tutti Notizie Meteo dell'Italia da il Meteo .It http://ilMeteo.It la Situazione Italiana vista dal...
Discussione
07/10/2021 08:45:43
none
  • mi piace
    iLikeIt
    PublicVote

Vuoi partecipare anche tu a questa discussione?

Rispondi per lasciare il tuo messaggio in questa discussione